createdAt,value
2022-10-28T00:01:16.402Z,96.37
2022-10-28T00:03:44.163Z,96.36
2022-10-28T00:06:16.100Z,96.54
2022-10-28T00:08:43.193Z,96.58
2022-10-28T00:11:11.328Z,96.80
2022-10-28T00:13:38.665Z,96.87
2022-10-28T00:16:06.663Z,96.78
2022-10-28T00:18:33.279Z,96.97
2022-10-28T00:21:04.324Z,97.07
2022-10-28T00:23:31.109Z,96.93
2022-10-28T00:26:04.094Z,97.15
2022-10-28T00:28:30.873Z,97.37
2022-10-28T00:31:02.699Z,97.09
2022-10-28T00:33:29.367Z,97.50
2022-10-28T00:35:55.951Z,97.15
2022-10-28T00:38:22.627Z,97.50
2022-10-28T00:40:49.241Z,97.74
2022-10-28T00:43:15.887Z,97.39
2022-10-28T00:45:42.667Z,97.46
2022-10-28T00:48:09.327Z,97.30
2022-10-28T00:50:35.913Z,97.66
2022-10-28T00:53:05.305Z,97.59
2022-10-28T00:55:32.042Z,97.43
2022-10-28T00:57:59.381Z,97.37
2022-10-28T01:00:26.225Z,97.55
2022-10-28T01:02:52.872Z,97.80
2022-10-28T01:05:22.779Z,97.40
2022-10-28T01:07:51.798Z,97.19
2022-10-28T01:10:19.434Z,97.63
2022-10-28T01:12:46.010Z,97.65
2022-10-28T01:15:12.564Z,97.95
2022-10-28T01:17:45.021Z,97.74
2022-10-28T01:20:11.650Z,97.50
2022-10-28T01:22:57.140Z,97.73
2022-10-28T01:25:42.403Z,97.80
2022-10-28T01:28:11.742Z,97.88
2022-10-28T01:30:56.401Z,97.87
2022-10-28T01:33:49.699Z,97.66
2022-10-28T01:36:16.282Z,97.93
2022-10-28T01:38:48.756Z,98.12
2022-10-28T01:41:20.278Z,98.23
2022-10-28T01:43:46.819Z,98.21
2022-10-28T01:46:23.656Z,97.96
2022-10-28T01:49:02.574Z,98.42
2022-10-28T01:51:32.668Z,98.17
2022-10-28T01:54:01.426Z,98.38
2022-10-28T01:56:31.250Z,98.26
2022-10-28T01:58:59.235Z,98.63
2022-10-28T02:01:27.683Z,98.45
2022-10-28T02:03:54.821Z,98.59
2022-10-28T02:06:23.224Z,98.91
2022-10-28T02:09:08.802Z,98.29
2022-10-28T02:11:53.932Z,98.71
2022-10-28T02:14:29.399Z,98.49
2022-10-28T02:17:02.620Z,98.73
2022-10-28T02:19:29.246Z,98.63
2022-10-28T02:22:05.574Z,98.80
2022-10-28T02:24:51.477Z,98.94
2022-10-28T02:27:24.023Z,98.82
2022-10-28T02:29:59.249Z,98.66
2022-10-28T02:32:28.110Z,98.98
2022-10-28T02:34:56.420Z,98.90
2022-10-28T02:37:28.707Z,99.14
2022-10-28T02:40:00.400Z,99.21
2022-10-28T02:42:48.746Z,98.98
2022-10-28T02:45:29.235Z,99.42
2022-10-28T02:47:58.898Z,99.12
2022-10-28T02:50:29.515Z,99.11
2022-10-28T02:52:58.637Z,99.07
2022-10-28T02:55:30.181Z,98.85
2022-10-28T02:57:57.247Z,99.42
2022-10-28T03:00:25.167Z,99.28
2022-10-28T03:02:51.982Z,99.48
2022-10-28T03:05:18.715Z,99.18
2022-10-28T03:07:48.208Z,99.13
2022-10-28T03:10:18.449Z,99.21
2022-10-28T03:12:45.238Z,99.13
2022-10-28T03:15:11.843Z,98.97
2022-10-28T03:17:38.428Z,99.01
2022-10-28T03:20:05.250Z,98.86
2022-10-28T03:22:32.049Z,98.77
2022-10-28T03:24:58.730Z,99.22
2022-10-28T03:27:25.282Z,99.07
2022-10-28T03:29:51.935Z,98.98
2022-10-28T03:32:19.033Z,98.87
2022-10-28T03:34:47.519Z,98.83
2022-10-28T03:37:15.315Z,98.93
2022-10-28T03:39:41.935Z,98.88
2022-10-28T03:42:08.507Z,98.80
2022-10-28T03:44:35.121Z,98.45
2022-10-28T03:47:01.770Z,98.77
2022-10-28T03:49:28.481Z,98.82
2022-10-28T03:51:55.070Z,98.97
2022-10-28T03:54:21.886Z,98.73
2022-10-28T03:56:48.447Z,98.71
2022-10-28T03:59:17.773Z,98.71
2022-10-28T04:01:47.009Z,98.63
2022-10-28T04:04:13.724Z,98.44
2022-10-28T04:06:40.360Z,98.38
2022-10-28T04:09:06.960Z,98.66
2022-10-28T04:11:33.535Z,98.52
2022-10-28T04:14:00.290Z,98.58
2022-10-28T04:16:26.897Z,98.37
2022-10-28T04:18:53.467Z,98.71
2022-10-28T04:21:20.104Z,98.71
2022-10-28T04:23:46.684Z,98.52
2022-10-28T04:26:14.425Z,98.72
2022-10-28T04:28:41.168Z,98.56
2022-10-28T04:31:07.807Z,98.44
2022-10-28T04:33:34.427Z,98.45
2022-10-28T04:36:01.058Z,98.91
2022-10-28T04:38:27.777Z,98.89
2022-10-28T04:40:54.502Z,99.03
2022-10-28T04:43:21.165Z,98.71
2022-10-28T04:45:47.752Z,98.71
2022-10-28T04:48:14.351Z,98.76
2022-10-28T04:50:41.229Z,98.62
2022-10-28T04:53:07.802Z,99.06
2022-10-28T04:55:34.485Z,99.23
2022-10-28T04:58:01.405Z,99.12
2022-10-28T05:00:29.194Z,99.26
2022-10-28T05:02:56.533Z,99.21
2022-10-28T05:05:23.392Z,99.01
2022-10-28T05:07:50.164Z,99.40
2022-10-28T05:10:18.513Z,100.00
2022-10-28T05:12:45.689Z,99.46
2022-10-28T05:15:26.458Z,99.66
2022-10-28T05:17:53.581Z,99.41
2022-10-28T05:20:20.828Z,99.39
2022-10-28T05:22:48.263Z,99.53
2022-10-28T05:25:15.669Z,99.66
2022-10-28T05:27:42.597Z,100.00
2022-10-28T05:30:14.674Z,99.99
2022-10-28T05:32:41.305Z,99.83
2022-10-28T05:35:08.225Z,99.62
2022-10-28T05:37:34.804Z,99.60
2022-10-28T05:40:01.467Z,99.84
2022-10-28T05:42:28.066Z,99.97
2022-10-28T05:44:54.679Z,99.95
2022-10-28T05:47:21.559Z,99.63
2022-10-28T05:49:48.166Z,98.94
2022-10-28T05:52:15.105Z,98.74
2022-10-28T05:54:41.740Z,98.28
2022-10-28T05:57:08.334Z,98.15
2022-10-28T05:59:34.960Z,97.88
2022-10-28T06:02:01.607Z,97.52
2022-10-28T06:04:28.299Z,97.45
2022-10-28T06:06:56.145Z,96.99
2022-10-28T06:09:22.755Z,96.93
2022-10-28T06:11:47.869Z,96.44
2022-10-28T06:14:14.458Z,96.01
2022-10-28T06:16:41.171Z,95.76
2022-10-28T06:19:07.803Z,96.46
2022-10-28T06:21:34.371Z,96.18
2022-10-28T06:24:01.753Z,95.53
2022-10-28T06:26:28.347Z,95.29
2022-10-28T06:28:55.103Z,95.16
2022-10-28T06:31:21.750Z,95.11
2022-10-28T06:33:48.335Z,95.30
2022-10-28T06:36:14.939Z,95.25
2022-10-28T06:38:41.769Z,95.40
2022-10-28T06:41:08.517Z,94.99
2022-10-28T06:43:35.136Z,94.65
2022-10-28T06:46:02.600Z,94.39
2022-10-28T06:48:30.723Z,94.64
2022-10-28T06:50:58.263Z,94.33
2022-10-28T06:53:25.541Z,95.01
2022-10-28T06:55:53.143Z,94.79
2022-10-28T06:58:19.953Z,94.22
2022-10-28T07:00:46.534Z,94.31
2022-10-28T07:03:13.161Z,94.06
2022-10-28T07:05:39.863Z,93.40
2022-10-28T07:08:06.669Z,93.53
2022-10-28T07:10:33.434Z,93.97
2022-10-28T07:13:00.015Z,94.01
2022-10-28T07:15:26.738Z,93.52
2022-10-28T07:17:53.992Z,93.44
2022-10-28T07:20:20.730Z,93.69
2022-10-28T07:22:47.386Z,93.76
2022-10-28T07:25:14.022Z,93.46
2022-10-28T07:27:40.643Z,93.60
2022-10-28T07:30:07.652Z,93.87
2022-10-28T07:32:34.268Z,93.71
2022-10-28T07:35:00.924Z,93.36
2022-10-28T07:37:27.627Z,93.14
2022-10-28T07:39:54.275Z,93.07
2022-10-28T07:42:20.863Z,93.07
2022-10-28T07:44:48.022Z,92.51
2022-10-28T07:47:14.616Z,93.20
2022-10-28T07:49:41.351Z,94.91
2022-10-28T07:52:08.052Z,94.67
2022-10-28T07:54:34.747Z,94.03
2022-10-28T07:57:01.402Z,94.07
2022-10-28T07:59:27.986Z,93.49
2022-10-28T08:01:54.983Z,92.87
2022-10-28T08:04:21.912Z,92.83
2022-10-28T08:06:48.564Z,92.75
2022-10-28T08:09:16.359Z,92.00
2022-10-28T08:11:42.947Z,91.58
2022-10-28T08:14:09.545Z,91.61
2022-10-28T08:16:36.428Z,91.62
2022-10-28T08:19:07.464Z,91.49
2022-10-28T08:21:34.566Z,91.07
2022-10-28T08:24:01.274Z,91.42
2022-10-28T08:26:27.902Z,91.49
2022-10-28T08:28:54.572Z,91.34
2022-10-28T08:31:21.159Z,91.14
2022-10-28T08:33:47.767Z,90.50
2022-10-28T08:36:15.857Z,90.99
2022-10-28T08:38:46.449Z,91.49
2022-10-28T08:41:22.041Z,90.79
2022-10-28T08:44:09.096Z,90.79
2022-10-28T08:46:54.513Z,91.50
2022-10-28T08:49:23.644Z,91.04
2022-10-28T08:52:11.920Z,90.17
2022-10-28T08:54:47.776Z,90.12
2022-10-28T08:57:20.727Z,89.48
2022-10-28T08:59:54.175Z,89.15
2022-10-28T09:02:22.711Z,88.58
2022-10-28T09:04:52.335Z,88.03
2022-10-28T09:07:20.680Z,87.83
2022-10-28T09:09:48.557Z,88.09
2022-10-28T09:12:34.737Z,87.47
2022-10-28T09:15:13.108Z,86.88
2022-10-28T09:18:04.430Z,87.14
2022-10-28T09:20:31.022Z,86.39
2022-10-28T09:23:08.762Z,85.73
2022-10-28T09:25:58.733Z,84.85
2022-10-28T09:28:25.460Z,84.73
2022-10-28T09:31:33.037Z,82.89
2022-10-28T09:34:08.980Z,83.26
2022-10-28T09:36:38.027Z,82.58
2022-10-28T09:39:05.734Z,82.58
2022-10-28T09:41:33.752Z,82.66
2022-10-28T09:44:07.450Z,82.21
2022-10-28T09:46:37.184Z,81.72
2022-10-28T09:49:06.229Z,82.23
2022-10-28T09:51:45.091Z,80.95
2022-10-28T09:54:12.938Z,80.74
2022-10-28T09:56:40.645Z,80.99
2022-10-28T09:59:08.121Z,80.57
2022-10-28T10:01:36.235Z,81.16
2022-10-28T10:04:03.360Z,81.07
2022-10-28T10:06:35.660Z,80.15
2022-10-28T10:09:02.857Z,79.63
2022-10-28T10:11:32.616Z,79.67
2022-10-28T10:14:03.384Z,79.48
2022-10-28T10:16:32.899Z,79.26
2022-10-28T10:19:02.066Z,79.43
2022-10-28T10:21:41.245Z,79.10
2022-10-28T10:24:26.566Z,77.94
2022-10-28T10:26:53.656Z,77.84
2022-10-28T10:29:21.155Z,77.32
2022-10-28T10:31:48.166Z,77.94
2022-10-28T10:34:23.350Z,78.71
2022-10-28T10:36:51.126Z,78.50
2022-10-28T10:39:23.174Z,78.03
2022-10-28T10:41:49.772Z,77.76
2022-10-28T10:44:22.532Z,76.26
2022-10-28T10:46:55.493Z,76.29
2022-10-28T10:49:22.112Z,76.78
2022-10-28T10:51:59.391Z,76.57
2022-10-28T10:54:27.391Z,76.61
2022-10-28T10:56:54.083Z,76.54
2022-10-28T10:59:23.949Z,77.25
2022-10-28T11:01:51.032Z,76.47
2022-10-28T11:04:20.174Z,76.55
2022-10-28T11:06:50.534Z,75.06
2022-10-28T11:09:29.380Z,74.78
2022-10-28T11:11:56.584Z,77.63
2022-10-28T11:14:24.873Z,79.51
2022-10-28T11:16:55.658Z,77.39
2022-10-28T11:19:29.342Z,74.79
2022-10-28T11:21:56.256Z,75.28
2022-10-28T11:24:34.791Z,73.89
2022-10-28T11:27:13.629Z,73.55
2022-10-28T11:29:40.919Z,73.50
2022-10-28T11:32:22.542Z,73.91
2022-10-28T11:35:27.988Z,73.02
2022-10-28T11:38:21.314Z,72.44
2022-10-28T11:40:50.720Z,73.00
2022-10-28T11:44:07.213Z,73.42
2022-10-28T11:47:18.199Z,73.40
2022-10-28T11:50:06.592Z,73.51
2022-10-28T11:53:13.854Z,74.27
2022-10-28T11:56:12.472Z,73.68
2022-10-28T11:59:07.627Z,72.73
2022-10-28T12:01:44.174Z,74.28
2022-10-28T12:04:13.825Z,73.90
2022-10-28T12:06:46.496Z,74.27
2022-10-28T12:09:18.626Z,74.99
2022-10-28T12:14:50.297Z,73.20
2022-10-28T12:17:16.905Z,72.44
2022-10-28T12:20:13.571Z,72.42
2022-10-28T12:22:52.770Z,72.41
2022-10-28T12:25:25.605Z,72.65
2022-10-28T12:28:10.746Z,72.53
2022-10-28T12:31:04.299Z,73.28
2022-10-28T12:34:02.629Z,72.59
2022-10-28T12:36:51.551Z,73.18
2022-10-28T12:39:53.377Z,72.34
2022-10-28T12:42:58.735Z,73.32
2022-10-28T12:45:25.885Z,72.80
2022-10-28T12:48:07.633Z,72.86
2022-10-28T12:51:00.034Z,72.66
2022-10-28T12:53:59.250Z,74.03
2022-10-28T12:56:54.042Z,72.31
2022-10-28T12:59:33.537Z,72.11
2022-10-28T13:02:28.032Z,72.88
2022-10-28T13:05:16.723Z,71.45
2022-10-28T13:08:28.006Z,73.29
2022-10-28T13:11:13.494Z,71.97
2022-10-28T13:14:01.583Z,73.58
2022-10-28T13:16:34.350Z,72.65
2022-10-28T13:19:09.830Z,72.75
2022-10-28T13:21:39.218Z,72.42
2022-10-28T13:24:05.799Z,72.28
2022-10-28T13:26:34.339Z,72.15
2022-10-28T13:29:02.538Z,72.19
2022-10-28T13:31:42.926Z,72.44
2022-10-28T13:34:11.720Z,72.62
2022-10-28T13:36:57.328Z,70.80
2022-10-28T13:39:31.865Z,72.54
2022-10-28T13:42:23.443Z,72.37
2022-10-28T13:45:18.605Z,73.06
2022-10-28T13:48:05.533Z,73.22
2022-10-28T13:51:05.314Z,73.01
2022-10-28T13:56:44.384Z,71.54
2022-10-28T13:59:34.036Z,71.68
2022-10-28T14:02:39.061Z,71.94
2022-10-28T14:05:24.000Z,72.46
2022-10-28T14:08:09.213Z,73.15
2022-10-28T14:11:11.969Z,72.18
2022-10-28T14:14:22.875Z,72.30
2022-10-28T14:17:14.299Z,71.95
2022-10-28T14:20:08.511Z,72.23
2022-10-28T14:22:36.348Z,72.52
2022-10-28T14:25:44.776Z,72.94
2022-10-28T14:28:50.077Z,73.53
2022-10-28T14:31:21.006Z,71.64
2022-10-28T14:33:53.704Z,70.51
2022-10-28T14:36:20.360Z,70.70
2022-10-28T14:39:35.065Z,70.27
2022-10-28T14:42:24.523Z,70.98
2022-10-28T14:45:01.405Z,65.67
2022-10-28T14:47:29.670Z,63.27
2022-10-28T14:50:02.421Z,61.28
2022-10-28T14:52:31.957Z,61.57
2022-10-28T14:55:03.797Z,62.71
2022-10-28T14:57:34.102Z,63.13
2022-10-28T15:00:04.802Z,59.86
2022-10-28T15:02:33.347Z,60.59
2022-10-28T15:05:10.003Z,60.12
2022-10-28T15:07:39.837Z,57.92
2022-10-28T15:10:18.201Z,59.22
2022-10-28T15:12:47.175Z,58.18
2022-10-28T15:15:22.812Z,59.22
2022-10-28T15:17:50.907Z,59.48
2022-10-28T15:20:21.881Z,58.05
2022-10-28T15:22:49.453Z,57.46
2022-10-28T15:25:18.194Z,58.73
2022-10-28T15:27:46.141Z,61.64
2022-10-28T15:30:17.165Z,59.16
2022-10-28T15:32:44.535Z,58.22
2022-10-28T15:35:21.785Z,56.51
2022-10-28T15:37:49.140Z,59.20
2022-10-28T15:40:21.256Z,58.48
2022-10-28T15:42:58.692Z,59.17
2022-10-28T15:45:27.404Z,57.89
2022-10-28T15:47:55.481Z,59.46
2022-10-28T15:50:26.513Z,64.38
2022-10-28T15:52:55.483Z,64.31
2022-10-28T15:55:30.618Z,60.07
2022-10-28T15:58:16.496Z,59.81
2022-10-28T16:00:56.262Z,59.92
2022-10-28T16:03:26.549Z,59.95
2022-10-28T16:05:56.002Z,62.25
2022-10-28T16:08:25.945Z,61.73
2022-10-28T16:10:55.922Z,60.36
2022-10-28T16:13:23.641Z,61.37
2022-10-28T16:15:55.011Z,61.67
2022-10-28T16:18:24.002Z,63.17
2022-10-28T16:20:51.924Z,62.66
2022-10-28T16:23:21.439Z,59.66
2022-10-28T16:25:48.936Z,60.30
2022-10-28T16:28:19.315Z,63.31
2022-10-28T16:30:47.197Z,60.96
2022-10-28T16:33:14.915Z,61.70
2022-10-28T16:35:42.657Z,58.97
2022-10-28T16:38:12.790Z,60.15
2022-10-28T16:40:55.310Z,59.78
2022-10-28T16:43:24.233Z,58.26
2022-10-28T16:45:52.073Z,59.56
2022-10-28T16:48:20.531Z,59.78
2022-10-28T16:50:50.574Z,58.52
2022-10-28T16:53:18.272Z,57.95
2022-10-28T16:55:46.074Z,58.62
2022-10-28T16:58:13.771Z,59.03
2022-10-28T17:00:42.086Z,59.14
2022-10-28T17:03:12.736Z,59.79
2022-10-28T17:05:40.150Z,60.92
2022-10-28T17:08:09.821Z,61.27
2022-10-28T17:10:37.564Z,60.30
2022-10-28T17:13:04.710Z,59.96
2022-10-28T17:15:32.279Z,61.74
2022-10-28T17:17:59.882Z,62.53
2022-10-28T17:20:27.547Z,61.36
2022-10-28T17:22:55.356Z,61.25
2022-10-28T17:25:24.120Z,60.58
2022-10-28T17:27:52.796Z,63.10
2022-10-28T17:30:21.253Z,63.29
2022-10-28T17:32:50.484Z,62.02
2022-10-28T17:35:18.519Z,62.49
2022-10-28T17:37:45.854Z,63.02
2022-10-28T17:40:13.184Z,64.17
2022-10-28T17:42:41.860Z,64.33
2022-10-28T17:45:10.120Z,64.26
2022-10-28T17:47:37.051Z,63.80
2022-10-28T17:50:04.639Z,64.24
2022-10-28T17:52:35.670Z,64.40
2022-10-28T17:55:05.800Z,66.13
2022-10-28T17:57:32.894Z,70.37
2022-10-28T17:59:59.955Z,70.11
2022-10-28T18:02:28.800Z,67.88
2022-10-28T18:04:55.784Z,67.93
2022-10-28T18:07:22.779Z,68.58
2022-10-28T18:09:50.020Z,67.36
2022-10-28T18:12:17.096Z,68.87
2022-10-28T18:14:44.292Z,67.60
2022-10-28T18:17:13.790Z,67.70
2022-10-28T18:19:40.795Z,68.29
2022-10-28T18:22:07.804Z,69.12
2022-10-28T18:24:35.035Z,70.37
2022-10-28T18:27:02.188Z,70.93
2022-10-28T18:29:29.206Z,72.35
2022-10-28T18:31:57.212Z,71.06
2022-10-28T18:34:24.427Z,72.01
2022-10-28T18:36:52.044Z,72.24
2022-10-28T18:39:20.219Z,72.37
2022-10-28T18:41:47.083Z,72.58
2022-10-28T18:44:14.615Z,72.84
2022-10-28T18:46:41.670Z,72.54
2022-10-28T18:49:08.651Z,73.49
2022-10-28T18:51:35.757Z,74.18
2022-10-28T18:54:02.911Z,73.51
2022-10-28T18:56:30.388Z,73.81
2022-10-28T18:58:58.335Z,74.90
2022-10-28T19:01:27.336Z,76.03
2022-10-28T19:03:55.537Z,75.39
2022-10-28T19:06:23.659Z,76.86
2022-10-28T19:08:52.362Z,75.64
2022-10-28T19:11:19.657Z,75.73
2022-10-28T19:13:46.981Z,75.27
2022-10-28T19:16:13.964Z,76.31
2022-10-28T19:18:41.048Z,75.99
2022-10-28T19:21:11.226Z,77.13
2022-10-28T19:23:38.622Z,76.38
2022-10-28T19:26:07.287Z,76.05
2022-10-28T19:28:39.817Z,75.86
2022-10-28T19:31:08.660Z,75.74
2022-10-28T19:33:36.153Z,76.84
2022-10-28T19:36:05.006Z,77.05
2022-10-28T19:38:33.139Z,77.32
2022-10-28T19:41:02.186Z,77.73
2022-10-28T19:43:29.725Z,77.99
2022-10-28T19:46:02.875Z,77.08
2022-10-28T19:48:30.297Z,77.00
2022-10-28T19:50:57.685Z,77.36
2022-10-28T19:53:25.859Z,77.26
2022-10-28T19:55:57.256Z,77.40
2022-10-28T19:58:24.768Z,79.56
2022-10-28T20:00:56.619Z,78.46
2022-10-28T20:03:23.916Z,77.88
2022-10-28T20:05:58.892Z,77.69
2022-10-28T20:08:26.125Z,78.29
2022-10-28T20:11:01.488Z,79.15
2022-10-28T20:13:29.159Z,80.10
2022-10-28T20:15:57.322Z,80.31
2022-10-28T20:18:25.104Z,80.02
2022-10-28T20:20:52.751Z,79.31
2022-10-28T20:23:20.015Z,79.01
2022-10-28T20:25:51.579Z,79.62
2022-10-28T20:28:19.063Z,80.08
2022-10-28T20:30:55.703Z,79.90
2022-10-28T20:33:22.927Z,80.38
2022-10-28T20:35:50.459Z,79.41
2022-10-28T20:38:19.018Z,79.41
2022-10-28T20:40:49.354Z,80.29
2022-10-28T20:43:17.564Z,81.28
2022-10-28T20:45:44.709Z,80.51
2022-10-28T20:48:12.132Z,81.22
2022-10-28T20:50:39.378Z,81.44
2022-10-28T20:53:06.445Z,81.57
2022-10-28T20:55:33.459Z,80.52
2022-10-28T20:58:00.523Z,80.83
2022-10-28T21:00:27.733Z,80.85
2022-10-28T21:02:55.770Z,81.40
2022-10-28T21:05:24.568Z,81.24
2022-10-28T21:07:51.641Z,81.52
2022-10-28T21:10:19.606Z,81.31
2022-10-28T21:12:47.061Z,81.24
2022-10-28T21:15:15.777Z,81.50
2022-10-28T21:17:43.308Z,82.00
2022-10-28T21:20:10.807Z,82.22
2022-10-28T21:22:37.839Z,82.09
2022-10-28T21:25:06.396Z,81.92
2022-10-28T21:27:34.676Z,82.01
2022-10-28T21:30:01.891Z,81.67
2022-10-28T21:32:29.020Z,82.21
2022-10-28T21:34:56.143Z,81.65
2022-10-28T21:37:23.252Z,82.18
2022-10-28T21:39:55.067Z,82.30
2022-10-28T21:42:24.089Z,82.89
2022-10-28T21:44:51.101Z,82.95
2022-10-28T21:47:18.492Z,82.70
2022-10-28T21:49:45.582Z,82.42
2022-10-28T21:52:13.229Z,82.45
2022-10-28T21:54:43.017Z,83.25
2022-10-28T21:57:10.147Z,83.17
2022-10-28T21:59:37.345Z,83.01
2022-10-28T22:02:05.187Z,82.78
2022-10-28T22:04:32.788Z,82.74
2022-10-28T22:06:59.802Z,83.05
2022-10-28T22:09:26.964Z,83.11
2022-10-28T22:11:54.079Z,82.79
2022-10-28T22:14:21.971Z,82.89
2022-10-28T22:16:49.235Z,83.17
2022-10-28T22:19:16.720Z,83.86
2022-10-28T22:21:44.140Z,83.87
2022-10-28T22:24:11.306Z,83.96
2022-10-28T22:26:38.221Z,84.09
2022-10-28T22:29:05.536Z,84.20
2022-10-28T22:31:33.208Z,84.17
2022-10-28T22:34:00.602Z,84.33
2022-10-28T22:36:28.483Z,84.21
2022-10-28T22:38:55.709Z,84.32
2022-10-28T22:41:24.807Z,84.21
2022-10-28T22:43:54.227Z,84.09
2022-10-28T22:46:21.397Z,85.36
2022-10-28T22:48:48.459Z,85.13
2022-10-28T22:51:16.088Z,84.65
2022-10-28T22:53:43.215Z,84.96
2022-10-28T22:56:13.255Z,85.17
2022-10-28T22:58:39.931Z,85.25
2022-10-28T23:01:07.284Z,84.97
2022-10-28T23:03:43.082Z,84.85
2022-10-28T23:06:12.102Z,84.88
2022-10-28T23:08:41.752Z,85.29
2022-10-28T23:11:27.937Z,85.58
2022-10-28T23:13:56.257Z,86.02
2022-10-28T23:16:30.094Z,86.61
2022-10-28T23:18:57.092Z,85.88
2022-10-28T23:21:29.010Z,85.61
2022-10-28T23:24:11.026Z,85.60
2022-10-28T23:29:28.090Z,86.31
2022-10-28T23:32:11.000Z,87.02
2022-10-28T23:34:44.215Z,86.59
2022-10-28T23:40:04.609Z,86.58
2022-10-28T23:42:36.266Z,86.62
2022-10-28T23:45:03.782Z,87.46
2022-10-28T23:47:35.735Z,87.27
2022-10-28T23:50:02.629Z,86.74
2022-10-28T23:52:29.791Z,86.94
2022-10-28T23:55:00.682Z,86.92
2022-10-28T23:57:27.958Z,86.89
2022-10-28T23:59:54.873Z,87.12
